createdAt,value
2019-02-14T00:00:04.160Z,1030.37
2019-02-14T00:00:19.157Z,1030.37
2019-02-14T00:00:34.154Z,1030.36
2019-02-14T00:00:49.151Z,1030.38
2019-02-14T00:01:04.147Z,1030.34
2019-02-14T00:01:19.144Z,1030.37
2019-02-14T00:01:34.171Z,1030.37
2019-02-14T00:01:49.140Z,1030.39
2019-02-14T00:02:04.136Z,1030.34
2019-02-14T00:02:19.135Z,1030.32
2019-02-14T00:02:34.134Z,1030.34
2019-02-14T00:02:49.130Z,1030.39
2019-02-14T00:03:04.124Z,1030.35
2019-02-14T00:03:19.133Z,1030.33
2019-02-14T00:03:34.122Z,1030.36
2019-02-14T00:03:49.122Z,1030.35
2019-02-14T00:04:04.114Z,1030.35
2019-02-14T00:04:19.111Z,1030.37
2019-02-14T00:04:34.127Z,1030.34
2019-02-14T00:04:49.116Z,1030.38
2019-02-14T00:05:04.102Z,1030.38
2019-02-14T00:05:19.100Z,1030.33
2019-02-14T00:05:34.100Z,1030.35
2019-02-14T00:05:49.095Z,1030.38
2019-02-14T00:06:04.094Z,1030.36
2019-02-14T00:06:19.090Z,1030.37
2019-02-14T00:06:34.113Z,1030.33
2019-02-14T00:06:49.083Z,1030.36
2019-02-14T00:07:04.080Z,1030.32
2019-02-14T00:07:19.077Z,1030.35
2019-02-14T00:07:34.075Z,1030.33
2019-02-14T00:07:49.073Z,1030.36
2019-02-14T00:08:04.068Z,1030.37
2019-02-14T00:08:19.068Z,1030.35
2019-02-14T00:08:34.066Z,1030.34
2019-02-14T00:08:49.066Z,1030.32
2019-02-14T00:09:04.057Z,1030.34
2019-02-14T00:09:19.057Z,1030.34
2019-02-14T00:09:34.057Z,1030.32
2019-02-14T00:09:49.052Z,1030.33
2019-02-14T00:10:04.053Z,1030.33
2019-02-14T00:10:19.043Z,1030.33
2019-02-14T00:10:34.041Z,1030.32
2019-02-14T00:10:49.039Z,1030.30
2019-02-14T00:11:04.035Z,1030.36
2019-02-14T00:11:19.034Z,1030.36
2019-02-14T00:11:34.060Z,1030.36
2019-02-14T00:11:49.027Z,1030.35
2019-02-14T00:12:04.025Z,1030.34
2019-02-14T00:12:19.025Z,1030.37
2019-02-14T00:12:34.024Z,1030.33
2019-02-14T00:12:49.019Z,1030.31
2019-02-14T00:13:04.014Z,1030.32
2019-02-14T00:13:19.011Z,1030.33
2019-02-14T00:13:34.006Z,1030.37
2019-02-14T00:13:49.004Z,1030.33
2019-02-14T00:14:04.002Z,1030.35
2019-02-14T00:14:19.004Z,1030.36
2019-02-14T00:14:33.997Z,1030.35
2019-02-14T00:14:48.995Z,1030.38
2019-02-14T00:15:03.991Z,1030.38
2019-02-14T00:15:18.990Z,1030.37
2019-02-14T00:15:33.991Z,1030.35
2019-02-14T00:15:48.984Z,1030.36
2019-02-14T00:16:03.982Z,1030.37
2019-02-14T00:16:18.977Z,1030.38
2019-02-14T00:16:33.990Z,1030.32
2019-02-14T00:16:48.989Z,1030.38
2019-02-14T00:17:03.972Z,1030.35
2019-02-14T00:17:18.974Z,1030.33
2019-02-14T00:17:33.965Z,1030.33
2019-02-14T00:17:48.959Z,1030.35
2019-02-14T00:18:03.957Z,1030.33
2019-02-14T00:18:18.956Z,1030.36
2019-02-14T00:18:33.957Z,1030.38
2019-02-14T00:18:48.950Z,1030.37
2019-02-14T00:19:03.946Z,1030.39
2019-02-14T00:19:18.947Z,1030.36
2019-02-14T00:19:33.939Z,1030.36
2019-02-14T00:19:48.939Z,1030.37
2019-02-14T00:20:03.935Z,1030.34
2019-02-14T00:20:18.939Z,1030.36
2019-02-14T00:20:33.929Z,1030.39
2019-02-14T00:20:48.926Z,1030.34
2019-02-14T00:21:03.925Z,1030.33
2019-02-14T00:21:18.922Z,1030.39
2019-02-14T00:21:33.963Z,1030.34
2019-02-14T00:21:48.947Z,1030.34
2019-02-14T00:22:03.915Z,1030.35
2019-02-14T00:22:18.913Z,1030.34
2019-02-14T00:22:33.906Z,1030.35
2019-02-14T00:22:48.905Z,1030.34
2019-02-14T00:23:03.908Z,1030.33
2019-02-14T00:23:18.898Z,1030.32
2019-02-14T00:23:33.899Z,1030.34
2019-02-14T00:23:48.893Z,1030.34
2019-02-14T00:24:03.892Z,1030.32
2019-02-14T00:24:18.887Z,1030.32
2019-02-14T00:24:33.885Z,1030.34
2019-02-14T00:24:48.881Z,1030.34
2019-02-14T00:25:03.880Z,1030.35
2019-02-14T00:25:18.878Z,1030.35
2019-02-14T00:25:33.873Z,1030.30
2019-02-14T00:25:48.871Z,1030.30
2019-02-14T00:26:03.880Z,1030.35
2019-02-14T00:26:18.867Z,1030.32
2019-02-14T00:26:33.867Z,1030.32
2019-02-14T00:26:48.888Z,1030.30
2019-02-14T00:27:03.882Z,1030.35
2019-02-14T00:27:18.853Z,1030.31
2019-02-14T00:27:33.850Z,1030.27
2019-02-14T00:27:48.847Z,1030.29
2019-02-14T00:28:03.846Z,1030.28
2019-02-14T00:28:18.843Z,1030.25
2019-02-14T00:28:33.847Z,1030.27
2019-02-14T00:28:48.838Z,1030.25
2019-02-14T00:29:03.837Z,1030.24
2019-02-14T00:29:18.831Z,1030.26
2019-02-14T00:29:33.828Z,1030.27
2019-02-14T00:29:48.827Z,1030.22
2019-02-14T00:30:03.824Z,1030.26
2019-02-14T00:30:18.820Z,1030.26
2019-02-14T00:30:33.818Z,1030.23
2019-02-14T00:30:48.817Z,1030.24
2019-02-14T00:31:03.812Z,1030.23
2019-02-14T00:31:18.814Z,1030.23
2019-02-14T00:31:33.808Z,1030.24
2019-02-14T00:31:48.820Z,1030.23
2019-02-14T00:32:03.827Z,1030.23
2019-02-14T00:32:18.800Z,1030.24
2019-02-14T00:32:33.795Z,1030.24
2019-02-14T00:32:48.795Z,1030.23
2019-02-14T00:33:03.794Z,1030.24
2019-02-14T00:33:18.787Z,1030.21
2019-02-14T00:33:33.786Z,1030.26
2019-02-14T00:33:48.781Z,1030.20
2019-02-14T00:34:03.781Z,1030.19
2019-02-14T00:34:18.777Z,1030.20
2019-02-14T00:34:33.773Z,1030.22
2019-02-14T00:34:48.770Z,1030.23
2019-02-14T00:35:03.768Z,1030.25
2019-02-14T00:35:24.960Z,1030.25
2019-02-14T00:35:34.762Z,1030.21
2019-02-14T00:35:48.762Z,1030.21
2019-02-14T00:36:03.763Z,1030.22
2019-02-14T00:36:18.757Z,1030.22
2019-02-14T00:36:33.753Z,1030.23
2019-02-14T00:36:48.750Z,1030.22
2019-02-14T00:37:03.772Z,1030.24
2019-02-14T00:37:18.745Z,1030.17
2019-02-14T00:37:33.740Z,1030.22
2019-02-14T00:37:48.762Z,1030.23
2019-02-14T00:38:03.735Z,1030.21
2019-02-14T00:38:18.732Z,1030.25
2019-02-14T00:38:33.728Z,1030.22
2019-02-14T00:38:48.727Z,1030.23
2019-02-14T00:39:03.723Z,1030.24
2019-02-14T00:39:18.719Z,1030.23
2019-02-14T00:39:33.717Z,1030.23
2019-02-14T00:39:48.717Z,1030.23
2019-02-14T00:40:03.713Z,1030.21
2019-02-14T00:40:18.708Z,1030.25
2019-02-14T00:40:33.708Z,1030.23
2019-02-14T00:40:48.705Z,1030.24
2019-02-14T00:41:03.700Z,1030.28
2019-02-14T00:41:18.697Z,1030.25
2019-02-14T00:41:33.694Z,1030.26
2019-02-14T00:41:48.695Z,1030.28
2019-02-14T00:42:03.689Z,1030.28
2019-02-14T00:42:18.721Z,1030.25
2019-02-14T00:42:33.686Z,1030.30
2019-02-14T00:42:48.682Z,1030.26
2019-02-14T00:43:03.679Z,1030.27
2019-02-14T00:43:18.678Z,1030.28
2019-02-14T00:43:33.673Z,1030.28
2019-02-14T00:43:48.669Z,1030.26
2019-02-14T00:44:03.671Z,1030.24
2019-02-14T00:44:18.666Z,1030.28
2019-02-14T00:44:33.663Z,1030.21
2019-02-14T00:44:48.658Z,1030.25
2019-02-14T00:45:03.655Z,1030.26
2019-02-14T00:45:18.658Z,1030.23
2019-02-14T00:45:34.741Z,1030.25
2019-02-14T00:45:48.649Z,1030.25
2019-02-14T00:46:03.647Z,1030.25
2019-02-14T00:46:18.641Z,1030.25
2019-02-14T00:46:33.641Z,1030.27
2019-02-14T00:46:48.639Z,1030.26
2019-02-14T00:47:03.635Z,1030.23
2019-02-14T00:47:18.653Z,1030.25
2019-02-14T00:47:33.655Z,1030.23
2019-02-14T00:47:48.625Z,1030.23
2019-02-14T00:48:03.621Z,1030.27
2019-02-14T00:48:18.625Z,1030.27
2019-02-14T00:48:33.617Z,1030.27
2019-02-14T00:48:48.615Z,1030.24
2019-02-14T00:49:03.612Z,1030.26
2019-02-14T00:49:18.608Z,1030.27
2019-02-14T00:49:33.607Z,1030.30
2019-02-14T00:49:48.605Z,1030.27
2019-02-14T00:50:03.657Z,1030.31
2019-02-14T00:50:18.597Z,1030.29
2019-02-14T00:50:33.595Z,1030.32
2019-02-14T00:50:48.591Z,1030.32
2019-02-14T00:51:03.591Z,1030.32
2019-02-14T00:51:18.586Z,1030.32
2019-02-14T00:51:33.582Z,1030.30
2019-02-14T00:51:48.580Z,1030.33
2019-02-14T00:52:03.578Z,1030.30
2019-02-14T00:52:18.574Z,1030.31
2019-02-14T00:52:33.590Z,1030.29
2019-02-14T00:52:48.588Z,1030.30
2019-02-14T00:53:03.567Z,1030.30
2019-02-14T00:53:18.563Z,1030.32
2019-02-14T00:53:33.563Z,1030.33
2019-02-14T00:53:48.559Z,1030.34
2019-02-14T00:54:03.556Z,1030.31
2019-02-14T00:54:18.596Z,1030.36
2019-02-14T00:54:33.603Z,1030.29
2019-02-14T00:54:48.546Z,1030.32
2019-02-14T00:55:03.543Z,1030.31
2019-02-14T00:55:18.541Z,1030.33
2019-02-14T00:55:33.542Z,1030.31
2019-02-14T00:55:48.536Z,1030.32
2019-02-14T00:56:03.532Z,1030.33
2019-02-14T00:56:18.532Z,1030.33
2019-02-14T00:56:33.532Z,1030.28
2019-02-14T00:56:48.529Z,1030.32
2019-02-14T00:57:03.523Z,1030.34
2019-02-14T00:57:18.523Z,1030.34
2019-02-14T00:57:33.516Z,1030.34
2019-02-14T00:57:48.548Z,1030.35
2019-02-14T00:58:03.517Z,1030.37
2019-02-14T00:58:18.508Z,1030.34
2019-02-14T00:58:33.505Z,1030.39
2019-02-14T00:58:48.505Z,1030.36
2019-02-14T00:59:03.499Z,1030.37
2019-02-14T00:59:18.499Z,1030.35
2019-02-14T00:59:33.495Z,1030.36
2019-02-14T00:59:48.493Z,1030.35
2019-02-14T01:00:03.488Z,1030.33
2019-02-14T01:00:18.495Z,1030.34
2019-02-14T01:00:33.483Z,1030.33
2019-02-14T01:00:48.480Z,1030.27
2019-02-14T01:01:03.485Z,1030.32
2019-02-14T01:01:18.476Z,1030.35
2019-02-14T01:01:33.471Z,1030.30
2019-02-14T01:01:48.468Z,1030.35
2019-02-14T01:02:03.465Z,1030.30
2019-02-14T01:02:18.463Z,1030.32
2019-02-14T01:02:33.462Z,1030.33
2019-02-14T01:02:48.458Z,1030.31
2019-02-14T01:03:03.481Z,1030.35
2019-02-14T01:03:18.453Z,1030.34
2019-02-14T01:03:33.452Z,1030.33
2019-02-14T01:03:48.446Z,1030.34
2019-02-14T01:04:03.447Z,1030.29
2019-02-14T01:04:18.443Z,1030.32
2019-02-14T01:04:33.443Z,1030.31
2019-02-14T01:04:48.441Z,1030.30
2019-02-14T01:05:03.435Z,1030.29
2019-02-14T01:05:18.430Z,1030.28
2019-02-14T01:05:33.960Z,1030.30
2019-02-14T01:05:48.425Z,1030.29
2019-02-14T01:06:03.421Z,1030.29
2019-02-14T01:06:18.419Z,1030.29
2019-02-14T01:06:33.416Z,1030.30
2019-02-14T01:06:48.413Z,1030.31
2019-02-14T01:07:03.413Z,1030.30
2019-02-14T01:07:18.410Z,1030.31
2019-02-14T01:07:33.404Z,1030.28
2019-02-14T01:07:48.404Z,1030.30
2019-02-14T01:08:03.402Z,1030.31
2019-02-14T01:08:18.413Z,1030.26
2019-02-14T01:08:33.395Z,1030.27
2019-02-14T01:08:48.390Z,1030.28
2019-02-14T01:09:03.387Z,1030.27
2019-02-14T01:09:18.388Z,1030.30
2019-02-14T01:09:33.383Z,1030.31
2019-02-14T01:09:48.389Z,1030.31
2019-02-14T01:10:03.380Z,1030.31
2019-02-14T01:10:18.375Z,1030.30
2019-02-14T01:10:33.370Z,1030.30
2019-02-14T01:10:48.371Z,1030.33
2019-02-14T01:11:03.368Z,1030.32
2019-02-14T01:11:18.365Z,1030.34
2019-02-14T01:11:33.360Z,1030.33
2019-02-14T01:11:48.363Z,1030.36
2019-02-14T01:12:03.354Z,1030.33
2019-02-14T01:12:18.358Z,1030.38
2019-02-14T01:12:33.348Z,1030.34
2019-02-14T01:12:48.348Z,1030.32
2019-02-14T01:13:03.346Z,1030.37
2019-02-14T01:13:18.367Z,1030.37
2019-02-14T01:13:33.340Z,1030.33
2019-02-14T01:13:48.337Z,1030.35
2019-02-14T01:14:03.340Z,1030.34
2019-02-14T01:14:18.330Z,1030.31
2019-02-14T01:14:33.335Z,1030.34
2019-02-14T01:14:48.327Z,1030.35
2019-02-14T01:15:03.321Z,1030.34
2019-02-14T01:15:18.323Z,1030.33
2019-02-14T01:15:33.317Z,1030.34
2019-02-14T01:15:48.312Z,1030.33
2019-02-14T01:16:03.309Z,1030.32
2019-02-14T01:16:18.307Z,1030.33
2019-02-14T01:16:33.304Z,1030.34
2019-02-14T01:16:48.303Z,1030.34
2019-02-14T01:17:03.300Z,1030.31
2019-02-14T01:17:18.298Z,1030.29
2019-02-14T01:17:33.295Z,1030.33
2019-02-14T01:17:48.293Z,1030.29
2019-02-14T01:18:03.290Z,1030.29
2019-02-14T01:18:18.287Z,1030.27
2019-02-14T01:18:33.310Z,1030.29
2019-02-14T01:18:48.279Z,1030.29
2019-02-14T01:19:03.276Z,1030.31
2019-02-14T01:19:18.273Z,1030.28
2019-02-14T01:19:33.270Z,1030.29
2019-02-14T01:19:48.268Z,1030.27
2019-02-14T01:20:03.270Z,1030.25
2019-02-14T01:20:18.263Z,1030.24
2019-02-14T01:20:33.260Z,1030.24
2019-02-14T01:20:48.259Z,1030.24
2019-02-14T01:21:03.256Z,1030.25
2019-02-14T01:21:18.253Z,1030.27
2019-02-14T01:21:33.249Z,1030.23
2019-02-14T01:21:48.254Z,1030.25
2019-02-14T01:22:03.243Z,1030.27
2019-02-14T01:22:18.270Z,1030.27
2019-02-14T01:22:33.239Z,1030.26
2019-02-14T01:22:48.251Z,1030.23
2019-02-14T01:23:03.232Z,1030.27
2019-02-14T01:23:18.229Z,1030.27
2019-02-14T01:23:33.226Z,1030.24
2019-02-14T01:23:48.224Z,1030.26
2019-02-14T01:24:03.222Z,1030.27
2019-02-14T01:24:18.218Z,1030.28
2019-02-14T01:24:33.215Z,1030.31
2019-02-14T01:24:48.218Z,1030.29
2019-02-14T01:25:03.214Z,1030.29
2019-02-14T01:25:18.207Z,1030.29
2019-02-14T01:25:33.210Z,1030.32
2019-02-14T01:25:48.201Z,1030.32
2019-02-14T01:26:03.198Z,1030.32
2019-02-14T01:26:18.195Z,1030.32
2019-02-14T01:26:33.192Z,1030.32
2019-02-14T01:26:48.197Z,1030.31
2019-02-14T01:27:03.188Z,1030.31
2019-02-14T01:27:18.288Z,1030.34
2019-02-14T01:27:33.190Z,1030.34
2019-02-14T01:27:48.216Z,1030.33
2019-02-14T01:28:03.176Z,1030.33
2019-02-14T01:28:18.174Z,1030.31
2019-02-14T01:28:33.174Z,1030.31
2019-02-14T01:28:48.168Z,1030.35
2019-02-14T01:29:03.164Z,1030.31
2019-02-14T01:29:18.164Z,1030.30
2019-02-14T01:29:33.160Z,1030.32
2019-02-14T01:29:48.161Z,1030.30
2019-02-14T01:30:03.154Z,1030.26
2019-02-14T01:30:18.151Z,1030.33
2019-02-14T01:30:33.149Z,1030.27
2019-02-14T01:30:48.147Z,1030.29
2019-02-14T01:31:03.144Z,1030.25
2019-02-14T01:31:18.140Z,1030.26
2019-02-14T01:31:33.142Z,1030.26
2019-02-14T01:31:48.134Z,1030.28
2019-02-14T01:32:03.131Z,1030.31
2019-02-14T01:32:18.157Z,1030.30
2019-02-14T01:32:33.127Z,1030.30
2019-02-14T01:32:48.123Z,1030.31
2019-02-14T01:33:03.120Z,1030.25
2019-02-14T01:33:18.117Z,1030.26
2019-02-14T01:33:33.114Z,1030.30
2019-02-14T01:33:48.112Z,1030.28
2019-02-14T01:34:03.110Z,1030.27
2019-02-14T01:34:18.110Z,1030.23
2019-02-14T01:34:33.105Z,1030.24
2019-02-14T01:34:48.100Z,1030.22
2019-02-14T01:35:03.098Z,1030.20
2019-02-14T01:35:18.098Z,1030.19
2019-02-14T01:35:33.099Z,1030.22
2019-02-14T01:35:48.090Z,1030.18
2019-02-14T01:36:03.088Z,1030.23
2019-02-14T01:36:18.083Z,1030.21
2019-02-14T01:36:33.083Z,1030.20
2019-02-14T01:36:48.078Z,1030.20
2019-02-14T01:37:03.077Z,1030.19
2019-02-14T01:37:18.073Z,1030.20
2019-02-14T01:37:33.095Z,1030.22
2019-02-14T01:37:48.311Z,1030.19
2019-02-14T01:38:03.064Z,1030.22
2019-02-14T01:38:18.064Z,1030.18
2019-02-14T01:38:33.060Z,1030.20
2019-02-14T01:38:48.705Z,1030.20
2019-02-14T01:39:03.055Z,1030.16
2019-02-14T01:39:18.055Z,1030.21
2019-02-14T01:39:33.049Z,1030.20
2019-02-14T01:39:48.045Z,1030.21
2019-02-14T01:40:03.044Z,1030.20
2019-02-14T01:40:18.042Z,1030.20
2019-02-14T01:40:33.043Z,1030.17
2019-02-14T01:40:48.033Z,1030.21
2019-02-14T01:41:03.034Z,1030.23
2019-02-14T01:41:18.029Z,1030.21
2019-02-14T01:41:33.030Z,1030.21
2019-02-14T01:41:48.024Z,1030.22
2019-02-14T01:42:03.024Z,1030.22
2019-02-14T01:42:18.023Z,1030.24
2019-02-14T01:42:33.042Z,1030.22
2019-02-14T01:42:48.014Z,1030.24
2019-02-14T01:43:03.014Z,1030.28
2019-02-14T01:43:18.006Z,1030.22
2019-02-14T01:43:33.003Z,1030.25
2019-02-14T01:43:48.001Z,1030.25
2019-02-14T01:44:02.999Z,1030.23
2019-02-14T01:44:17.995Z,1030.25
2019-02-14T01:44:33.026Z,1030.26
2019-02-14T01:44:48.000Z,1030.27
2019-02-14T01:45:02.988Z,1030.27
2019-02-14T01:45:17.986Z,1030.24
2019-02-14T01:45:32.982Z,1030.23
2019-02-14T01:45:47.982Z,1030.25
2019-02-14T01:46:02.980Z,1030.26
2019-02-14T01:46:17.976Z,1030.27
2019-02-14T01:46:32.974Z,1030.24
2019-02-14T01:46:47.969Z,1030.27
2019-02-14T01:47:02.965Z,1030.28
2019-02-14T01:47:17.961Z,1030.25
2019-02-14T01:47:32.959Z,1030.25
2019-02-14T01:47:47.974Z,1030.26
2019-02-14T01:48:02.955Z,1030.28
2019-02-14T01:48:17.958Z,1030.28
2019-02-14T01:48:32.954Z,1030.27
2019-02-14T01:48:47.945Z,1030.30
2019-02-14T01:49:02.945Z,1030.30
2019-02-14T01:49:17.942Z,1030.28
2019-02-14T01:49:32.938Z,1030.28
2019-02-14T01:49:47.935Z,1030.29
2019-02-14T01:50:02.932Z,1030.25
2019-02-14T01:50:17.928Z,1030.29
2019-02-14T01:50:32.927Z,1030.27
2019-02-14T01:50:47.923Z,1030.28
2019-02-14T01:51:02.921Z,1030.26
2019-02-14T01:51:17.919Z,1030.31
2019-02-14T01:51:32.918Z,1030.30
2019-02-14T01:51:47.911Z,1030.31
2019-02-14T01:52:02.913Z,1030.29
2019-02-14T01:52:17.908Z,1030.28
2019-02-14T01:52:32.903Z,1030.28
2019-02-14T01:52:47.929Z,1030.28
2019-02-14T01:53:02.901Z,1030.28
2019-02-14T01:53:17.897Z,1030.29
2019-02-14T01:53:32.894Z,1030.28
2019-02-14T01:53:47.891Z,1030.27
2019-02-14T01:54:02.889Z,1030.25
2019-02-14T01:54:17.885Z,1030.23
2019-02-14T01:54:32.881Z,1030.27
2019-02-14T01:54:47.879Z,1030.26
2019-02-14T01:55:02.876Z,1030.28
2019-02-14T01:55:17.875Z,1030.26
2019-02-14T01:55:32.870Z,1030.26
2019-02-14T01:55:47.869Z,1030.25
2019-02-14T01:56:02.872Z,1030.26
2019-02-14T01:56:17.862Z,1030.25
2019-02-14T01:56:32.860Z,1030.29
2019-02-14T01:56:47.861Z,1030.24
2019-02-14T01:57:02.853Z,1030.26
2019-02-14T01:57:17.850Z,1030.30
2019-02-14T01:57:32.850Z,1030.29
2019-02-14T01:57:47.847Z,1030.29
2019-02-14T01:58:02.869Z,1030.31
2019-02-14T01:58:17.855Z,1030.26
2019-02-14T01:58:32.868Z,1030.28
2019-02-14T01:58:47.839Z,1030.26
2019-02-14T01:59:02.836Z,1030.26
2019-02-14T01:59:17.834Z,1030.28
2019-02-14T01:59:32.829Z,1030.26
2019-02-14T01:59:47.867Z,1030.26
2019-02-14T02:00:02.824Z,1030.28
2019-02-14T02:00:17.817Z,1030.26
2019-02-14T02:00:32.818Z,1030.28
2019-02-14T02:00:47.819Z,1030.30
2019-02-14T02:01:02.809Z,1030.29
2019-02-14T02:01:17.806Z,1030.27
2019-02-14T02:01:32.804Z,1030.32
2019-02-14T02:01:47.804Z,1030.27
2019-02-14T02:02:02.798Z,1030.29
2019-02-14T02:02:17.796Z,1030.29
2019-02-14T02:02:32.792Z,1030.32
2019-02-14T02:02:47.793Z,1030.32
2019-02-14T02:03:02.786Z,1030.30
2019-02-14T02:03:17.802Z,1030.30
2019-02-14T02:03:32.784Z,1030.30
2019-02-14T02:03:47.783Z,1030.28
2019-02-14T02:04:02.778Z,1030.29
2019-02-14T02:04:17.774Z,1030.29
2019-02-14T02:04:32.772Z,1030.28
2019-02-14T02:04:47.767Z,1030.27
2019-02-14T02:05:02.764Z,1030.28
2019-02-14T02:05:17.762Z,1030.27
2019-02-14T02:05:32.763Z,1030.27
2019-02-14T02:05:50.744Z,1030.27
2019-02-14T02:06:02.754Z,1030.26
2019-02-14T02:06:17.750Z,1030.26
2019-02-14T02:06:32.754Z,1030.26
2019-02-14T02:06:47.745Z,1030.29
2019-02-14T02:07:02.742Z,1030.27
2019-02-14T02:07:17.740Z,1030.26
2019-02-14T02:07:32.738Z,1030.25
2019-02-14T02:07:47.736Z,1030.23
2019-02-14T02:08:02.730Z,1030.23
2019-02-14T02:08:17.758Z,1030.23
2019-02-14T02:08:32.728Z,1030.23
2019-02-14T02:08:47.723Z,1030.23
2019-02-14T02:09:02.720Z,1030.22
2019-02-14T02:09:17.716Z,1030.22
2019-02-14T02:09:32.716Z,1030.19
2019-02-14T02:09:47.711Z,1030.23
2019-02-14T02:10:02.708Z,1030.24
2019-02-14T02:10:17.705Z,1030.18
2019-02-14T02:10:32.709Z,1030.20
2019-02-14T02:10:47.703Z,1030.22
2019-02-14T02:11:02.698Z,1030.18
2019-02-14T02:11:17.699Z,1030.19
2019-02-14T02:11:32.691Z,1030.22
2019-02-14T02:11:47.694Z,1030.19
2019-02-14T02:12:02.685Z,1030.19
2019-02-14T02:12:17.683Z,1030.23
2019-02-14T02:12:32.681Z,1030.20
2019-02-14T02:12:47.679Z,1030.15
2019-02-14T02:13:02.675Z,1030.19
2019-02-14T02:13:17.676Z,1030.18
2019-02-14T02:13:32.697Z,1030.20
2019-02-14T02:13:47.668Z,1030.21
2019-02-14T02:14:02.664Z,1030.20
2019-02-14T02:14:17.667Z,1030.18
2019-02-14T02:14:32.658Z,1030.17
2019-02-14T02:14:47.655Z,1030.21
2019-02-14T02:15:02.653Z,1030.19
2019-02-14T02:15:17.650Z,1030.17
2019-02-14T02:15:32.647Z,1030.18
2019-02-14T02:15:47.644Z,1030.16
2019-02-14T02:16:02.645Z,1030.19
2019-02-14T02:16:17.653Z,1030.17
2019-02-14T02:16:32.637Z,1030.16
2019-02-14T02:16:47.635Z,1030.15
2019-02-14T02:17:02.633Z,1030.17
2019-02-14T02:17:17.632Z,1030.17
2019-02-14T02:17:32.628Z,1030.16
2019-02-14T02:17:47.632Z,1030.11
2019-02-14T02:18:02.622Z,1030.14
2019-02-14T02:18:17.616Z,1030.17
2019-02-14T02:18:32.613Z,1030.15
2019-02-14T02:18:47.631Z,1030.15
2019-02-14T02:19:02.608Z,1030.15
2019-02-14T02:19:17.609Z,1030.16
2019-02-14T02:19:32.609Z,1030.15
2019-02-14T02:19:47.601Z,1030.15
2019-02-14T02:20:02.597Z,1030.18
2019-02-14T02:20:17.595Z,1030.20
2019-02-14T02:20:33.551Z,1030.20
2019-02-14T02:20:47.591Z,1030.18
2019-02-14T02:21:02.586Z,1030.16
2019-02-14T02:21:17.587Z,1030.16
2019-02-14T02:21:32.579Z,1030.16
2019-02-14T02:21:47.586Z,1030.19
2019-02-14T02:22:02.578Z,1030.19
2019-02-14T02:22:17.579Z,1030.19
2019-02-14T02:22:32.572Z,1030.18
2019-02-14T02:22:47.567Z,1030.16
2019-02-14T02:23:02.563Z,1030.15
2019-02-14T02:23:17.561Z,1030.17
2019-02-14T02:23:32.559Z,1030.15
2019-02-14T02:23:47.586Z,1030.15
2019-02-14T02:24:02.553Z,1030.16
2019-02-14T02:24:17.553Z,1030.12
2019-02-14T02:24:32.547Z,1030.14
2019-02-14T02:24:47.545Z,1030.16
2019-02-14T02:25:02.542Z,1030.15
2019-02-14T02:25:17.540Z,1030.16
2019-02-14T02:25:32.535Z,1030.14
2019-02-14T02:25:47.541Z,1030.15
2019-02-14T02:26:02.530Z,1030.17
2019-02-14T02:26:17.529Z,1030.16
2019-02-14T02:26:32.525Z,1030.16
2019-02-14T02:26:47.524Z,1030.14
2019-02-14T02:27:02.521Z,1030.14
2019-02-14T02:27:17.518Z,1030.16
2019-02-14T02:27:32.514Z,1030.17
2019-02-14T02:27:47.511Z,1030.17
2019-02-14T02:28:02.512Z,1030.19
2019-02-14T02:28:17.508Z,1030.20
2019-02-14T02:28:32.502Z,1030.18
2019-02-14T02:28:47.504Z,1030.17
2019-02-14T02:29:02.525Z,1030.16
2019-02-14T02:29:17.497Z,1030.13
2019-02-14T02:29:32.491Z,1030.15
2019-02-14T02:29:47.488Z,1030.19
2019-02-14T02:30:02.487Z,1030.16
2019-02-14T02:30:17.492Z,1030.13
2019-02-14T02:30:32.482Z,1030.15
2019-02-14T02:30:47.479Z,1030.18
2019-02-14T02:31:02.476Z,1030.18
2019-02-14T02:31:17.471Z,1030.16
2019-02-14T02:31:32.473Z,1030.15
2019-02-14T02:31:47.470Z,1030.15
2019-02-14T02:32:02.465Z,1030.16
2019-02-14T02:32:17.460Z,1030.16
2019-02-14T02:32:32.463Z,1030.18
2019-02-14T02:32:47.455Z,1030.18
2019-02-14T02:33:02.455Z,1030.15
2019-02-14T02:33:17.450Z,1030.12
2019-02-14T02:33:32.450Z,1030.16
2019-02-14T02:33:47.443Z,1030.15
2019-02-14T02:34:02.449Z,1030.16
2019-02-14T02:34:17.459Z,1030.17
2019-02-14T02:34:32.436Z,1030.18
2019-02-14T02:34:47.437Z,1030.22
2019-02-14T02:35:02.433Z,1030.21
2019-02-14T02:35:17.427Z,1030.17
2019-02-14T02:35:32.428Z,1030.18
2019-02-14T02:35:47.425Z,1030.22
2019-02-14T02:36:02.423Z,1030.19
2019-02-14T02:36:17.417Z,1030.17
2019-02-14T02:36:32.413Z,1030.22
2019-02-14T02:36:47.415Z,1030.19
2019-02-14T02:37:02.408Z,1030.20
2019-02-14T02:37:17.404Z,1030.19
2019-02-14T02:37:32.402Z,1030.21
2019-02-14T02:37:47.402Z,1030.21
2019-02-14T02:38:02.398Z,1030.21
2019-02-14T02:38:17.394Z,1030.23
2019-02-14T02:38:32.392Z,1030.22
2019-02-14T02:38:47.392Z,1030.23
2019-02-14T02:39:02.388Z,1030.23
2019-02-14T02:39:17.411Z,1030.24
2019-02-14T02:39:32.382Z,1030.21
2019-02-14T02:39:47.388Z,1030.18
2019-02-14T02:40:02.374Z,1030.23
2019-02-14T02:40:17.371Z,1030.20
2019-02-14T02:40:32.387Z,1030.20
2019-02-14T02:40:47.368Z,1030.16
2019-02-14T02:41:02.365Z,1030.19
2019-02-14T02:41:17.362Z,1030.21
2019-02-14T02:41:32.359Z,1030.18
2019-02-14T02:41:47.357Z,1030.19
2019-02-14T02:42:02.353Z,1030.19
2019-02-14T02:42:17.349Z,1030.18
2019-02-14T02:42:32.348Z,1030.19
2019-02-14T02:42:47.344Z,1030.18
2019-02-14T02:43:02.341Z,1030.18
2019-02-14T02:43:17.338Z,1030.19
2019-02-14T02:43:32.336Z,1030.17
2019-02-14T02:43:47.332Z,1030.19
2019-02-14T02:44:02.330Z,1030.16
2019-02-14T02:44:17.327Z,1030.15
2019-02-14T02:44:32.352Z,1030.16
2019-02-14T02:44:47.323Z,1030.18
2019-02-14T02:45:02.325Z,1030.15
2019-02-14T02:45:17.316Z,1030.14
2019-02-14T02:45:32.319Z,1030.13
2019-02-14T02:45:47.313Z,1030.14
2019-02-14T02:46:02.308Z,1030.19
2019-02-14T02:46:17.306Z,1030.15
2019-02-14T02:46:32.305Z,1030.15
2019-02-14T02:46:47.299Z,1030.14
2019-02-14T02:47:02.297Z,1030.14
2019-02-14T02:47:17.296Z,1030.17
2019-02-14T02:47:32.292Z,1030.14
2019-02-14T02:47:47.289Z,1030.14
2019-02-14T02:48:02.286Z,1030.15
2019-02-14T02:48:17.290Z,1030.11
2019-02-14T02:48:32.284Z,1030.16
2019-02-14T02:48:47.279Z,1030.14
2019-02-14T02:49:02.278Z,1030.14
2019-02-14T02:49:17.272Z,1030.13
2019-02-14T02:49:32.272Z,1030.15
2019-02-14T02:49:47.281Z,1030.15
2019-02-14T02:50:02.270Z,1030.15
2019-02-14T02:50:17.262Z,1030.16
2019-02-14T02:50:32.257Z,1030.14
2019-02-14T02:50:47.259Z,1030.18
2019-02-14T02:51:02.258Z,1030.17
2019-02-14T02:51:17.251Z,1030.16
2019-02-14T02:51:32.255Z,1030.14
2019-02-14T02:51:47.250Z,1030.15
2019-02-14T02:52:02.245Z,1030.15
2019-02-14T02:52:17.242Z,1030.20
2019-02-14T02:52:32.240Z,1030.16
2019-02-14T02:52:47.233Z,1030.12
2019-02-14T02:53:02.231Z,1030.15
2019-02-14T02:53:17.228Z,1030.17
2019-02-14T02:53:32.226Z,1030.17
2019-02-14T02:53:47.223Z,1030.18
2019-02-14T02:54:02.218Z,1030.17
2019-02-14T02:54:17.216Z,1030.19
2019-02-14T02:54:32.214Z,1030.17
2019-02-14T02:54:47.244Z,1030.17
2019-02-14T02:55:02.208Z,1030.19
2019-02-14T02:55:17.206Z,1030.14
2019-02-14T02:55:32.205Z,1030.16
2019-02-14T02:55:47.202Z,1030.16
2019-02-14T02:56:02.197Z,1030.18
2019-02-14T02:56:17.199Z,1030.16
2019-02-14T02:56:32.193Z,1030.15
2019-02-14T02:56:47.189Z,1030.16
2019-02-14T02:57:02.193Z,1030.15
2019-02-14T02:57:17.185Z,1030.15
2019-02-14T02:57:32.179Z,1030.12
2019-02-14T02:57:47.178Z,1030.10
2019-02-14T02:58:02.177Z,1030.10
2019-02-14T02:58:17.172Z,1030.14
2019-02-14T02:58:32.169Z,1030.14
2019-02-14T02:58:47.180Z,1030.13
2019-02-14T02:59:02.165Z,1030.14
2019-02-14T02:59:17.164Z,1030.13
2019-02-14T02:59:32.162Z,1030.06
2019-02-14T02:59:47.158Z,1030.12
2019-02-14T03:00:02.180Z,1030.10
2019-02-14T03:00:17.157Z,1030.10
2019-02-14T03:00:32.148Z,1030.09
2019-02-14T03:00:47.147Z,1030.09
2019-02-14T03:01:02.146Z,1030.11
2019-02-14T03:01:17.139Z,1030.12